• Join FlightAware (Why Join?)
  • Login
  • US Flag 
02:30AM EST


 

Airport Tracker/Info


-or-


 

Live Flight TrackerFlight Track Log ✈ N43618 ✈ 06-May-2013 ✈ KDAL - KEFD

Flight Track Log - Related Links

Times and Time Zones

All times are in EDT time to prevent confusion due to time zone crossing. See the N43618 flight status page for this flight to view local times or setup timezone preferences in your user account.

Time Position Orientation Groundspeed Altitude Reporting Facility
EDT Latitude Longitude Course Direction KTS MPH feet Rate Location/Type
06:48PM 31.9817 -96.4769 155° Southeast 148 170 5,500  Level Houston Center
06:49PM 31.9406 -96.4611 162° South 146 168 5,500 -50 Level Fort Worth Center
06:50PM 31.9006 -96.4467 163° South 146 168 5,400 -50 Descending Fort Worth Center
06:51PM 31.8608 -96.4300 160° South 147 169 5,400  Level Fort Worth Center
06:53PM 31.7642 -96.2715 155° Southeast  Level Estimated
06:53PM 31.7792 -96.3942 160° South 147 169 5,400  Level Fort Worth Center
06:55PM 31.6994 -96.3608 160° South 152 175 5,400 33 Level Fort Worth Center
06:56PM 31.6639 -96.3492 164° South 154 177 5,500 -60 Climbing Fort Worth Center
06:58PM 31.5753 -96.3078 158° South 153 176 5,200 -16 Descending Houston Center
07:00PM 31.5273 -96.2749 151° Southeast  Level FlightAware Approximate
07:02PM 31.4053 -96.2372 154° Southeast 157 181 5,400  Level Houston Center
07:03PM 31.3647 -96.2200 160° South 156 180 5,400 56 Level Houston Center
07:04PM 31.3281 -96.2078 164° South 150 173 5,500 97 Climbing Houston Center
07:04PM 31.3242 -96.2039 139° Southeast 153 176 5,500  Level Houston Center
07:06PM 31.2840 -96.1734 147° Southeast  Level FlightAware Approximate
07:06PM 31.2389 -96.1689 147° Southeast 155 178 5,500  Level Houston Center
07:07PM 31.2832 -96.1260 154° Southeast  Level FlightAware Approximate
07:07PM 31.1978 -96.1542 163° South 161 185 5,400  Level Houston Center
07:08PM 31.2479 -96.1057 154° Southeast  Level FlightAware Approximate
07:09PM 31.1645 -96.1195 138° Southeast  Level FlightAware Approximate
07:09PM 31.1086 -96.1181 138° Southeast 153 176 5,400  Level Houston Center
07:10PM 31.0675 -96.1008 160° South 156 180 5,400  Level Houston Center
07:11PM 31.0272 -96.0825 159° South 156 180 5,400 32 Level Houston Center
07:14PM 30.9406 -96.0481 161° South 160 184 5,500 33 Climbing Houston Center
07:15PM 30.9000 -96.0322 161° South 159 183 5,500 -51 Level Houston Center
07:16PM 30.8564 -96.0131 159° South 159 183 5,400 -52 Descending Houston Center
07:16PM 30.8194 -95.9978 160° South 159 183 5,400  Level Houston Center
07:17PM 30.7761 -95.9808 161° South 160 184 5,400 49 Level Houston Center
07:18PM 30.7328 -95.9642 162° South 156 180 5,500 49 Climbing Houston Center
07:19PM 30.6936 -95.9492 162° South 154 177 5,500 -49 Level Houston Center
07:21PM 30.6478 -95.9303 160° South 161 185 5,400 -79 Descending Houston Center
07:21PM 30.6439 -95.9269 144° Southeast 162 186 5,400 98 Level Houston Center
07:22PM 30.6086 -95.9128 161° South 161 185 5,500 97 Climbing Houston Center
07:23PM 30.5550 -95.8900 160° South 155 178 5,600  Climbing Houston Center
07:24PM 30.5194 -95.8772 163° South 158 182 5,500 -113 Descending Houston Center
07:25PM 30.4803 -95.8622 162° South 161 185 5,400 -82 Descending Houston Center
07:25PM 30.4706 -95.8569 155° Southeast 160 184 5,400 98 Level Houston Center
07:26PM 30.4392 -95.8453 162° South 158 182 5,500  Climbing Houston Center
07:26PM 30.4294 -95.8403 156° South 157 181 5,400 -75 Descending Houston Center
07:27PM 30.3867 -95.8233 161° South 162 186 5,400  Level Houston Center
07:28PM 30.3456 -95.8061 160° South 159 183 5,400 -165 Level Houston Center
07:29PM 30.3019 -95.7911 163° South 168 193 5,100 -433 Descending Houston Center
07:30PM 30.2672 -95.7758 159° South 173 199 4,700 -466 Descending Houston Center
07:31PM 30.2153 -95.7578 163° South 171 197 4,200 -477 Descending Houston Center
07:31PM 30.2014 -95.7511 157° South 171 197 4,000 -493 Descending Houston Center
07:32PM 30.1650 -95.7344 158° South 164 189 3,600 -416 Descending Houston Center
07:33PM 30.1317 -95.7142 152° Southeast 164 189 3,300 -333 Descending Houston Center
07:33PM 30.1186 -95.7072 155° Southeast 166 191 3,200 -448 Descending Houston Center
07:34PM 30.0886 -95.6806 142° Southeast 164 189 2,800 -97 Descending Houston Center
07:34PM 30.0792 -95.6825 190° South 165 190 3,100 -327 Climbing Houston Center
07:35PM 30.0567 -95.6506 129° Southeast 162 186 2,500 -590 Descending Houston Center
07:35PM 30.0481 -95.6425 141° Southeast 150 173 2,500  Level Houston Center
07:36PM 30.0203 -95.6189 144° Southeast 157 181 2,500 -97 Level Houston Center
07:36PM 30.0133 -95.6117 138° Southeast 158 182 2,400 -269 Descending Houston Center
07:37PM 29.9836 -95.5844 142° Southeast 161 185 2,200 -195 Descending Houston Center
07:38PM 29.9414 -95.5372 136° Southeast 159 183 2,000 -103 Descending Houston Center
07:39PM 29.9231 -95.5194 140° Southeast 150 173 2,000  Level Houston Center
07:40PM 29.8831 -95.4711 134° Southeast 149 171 2,000  Level Houston Center
07:41PM 29.8622 -95.4494 138° Southeast 149 171 2,000  Level Houston Center
07:42PM 29.8256 -95.4153 141° Southeast 152 175 2,000  Level Houston Center
07:43PM 29.7914 -95.3858 143° Southeast 155 178 2,000  Level Houston Center
07:43PM 29.7861 -95.3772 125° Southeast 152 175 2,000  Level Houston Center
07:44PM 29.7828 -95.3386 96° East 151 174 2,000 97 Level Houston Center
07:44PM 29.7814 -95.3192 95° East 151 174 2,100  Climbing Houston Center
07:45PM 29.7764 -95.2914 102° East 152 175 2,000 -98 Descending Houston Center
07:45PM 29.7736 -95.2706 99° East 153 176 2,000  Level Houston Center
07:46PM 29.7681 -95.2467 105° East 161 185 2,000  Level Houston Center
07:46PM 29.7664 -95.2222 94° East 153 176 2,000 -131 Level Houston Center
07:48PM 29.7274 -95.2053 159° South  Level FlightAware Approximate
07:49PM 29.6892 -95.1672 145° Southeast 151 174 1,600  Level Houston Center
07:50PM 29.6742 -95.1656 174° South 148 170 1,300 -695 Descending Houston Center
07:51PM 29.6353 -95.1644 179° South 144 166 500 -787 Descending Houston Center
07:55PM 29.6073 -95.1588 145° Southeast  Level Estimated